CheckWX is a tool to help pilots better visualize weather data.  It is not intended as a substitute for an official pre-flight weather briefing.

20:36:18 UTC

KOFP METAR
Hanover County Municipal Airport
Richmond/Ashland, Virginia, USA
Current

42 mins ago

KOFP 181954Z AUTO 29010KT 10SM CLR 13/M01 A3004 RMK AO2 SLP174 T01331011
Observed
Feb-18 @ 19:54 UTC
Wind
  • 290° at 10 KTS
Visibility
10 SM
Flight Rules
VFR
Cloud Levels
  • Clear skies
Temperature
13°C / 55°F
Dewpoint
-1°C / 30°F
Humidity
38%
Altimeter
30.04" Hg
Pressure
1017.4 hPa
Previous

2 hours ago

KOFP 181854Z AUTO 10SM CLR 14/M01 A3003 RMK AO2 SLP168 T01391006
Observed
Feb-18 @ 18:54 UTC
Visibility
10 SM
Flight Rules
VFR
Cloud Levels
  • Clear skies
Temperature
14°C / 57°F
Dewpoint
-1°C / 30°F
Humidity
36%
Altimeter
30.03" Hg
Pressure
1016.8 hPa
Previous

3 hours ago

KOFP 181754Z AUTO 27015G21KT 10SM CLR 13/M01 A3001 RMK AO2 PK WND 30027/1726 SLP164 60000 T01331006 10139 20050 51018
Observed
Feb-18 @ 17:54 UTC
Wind
  • 270° at 15 KTS
  • Gusting to 21 KTS
Visibility
10 SM
Flight Rules
VFR
Cloud Levels
  • Clear skies
Temperature
13°C / 55°F
Dewpoint
-1°C / 30°F
Humidity
38%
Altimeter
30.01" Hg
Pressure
1016.4 hPa